Time;durP1;ratioP1;P1;durP2;ratioP2;P2;SDS_P1;SDS_P2;PMS_P1;PMS_P2;Temp;Humidity;BMP_temperature;BMP_pressure;BME280_temperature;BME280_humidity;BME280_pressure;Samples;Min_cycle;Max_cycle;Signal;HPM_P1;HPM_P2
2024/01/23 00:00:57;;;;;;;12.13;11.83;;;8.80;99.90;;;;;;5040179;28;20593;-71
2024/01/23 00:03:25;;;;;;;12.97;12.57;;;8.80;99.90;;;;;;5037257;28;20471;-71
2024/01/23 00:05:52;;;;;;;12.20;11.90;;;8.80;99.90;;;;;;5044342;28;20866;-72
2024/01/23 00:08:19;;;;;;;12.00;11.70;;;8.80;99.90;;;;;;5045868;28;20461;-72
2024/01/23 00:10:46;;;;;;;12.20;11.90;;;8.70;99.90;;;;;;5039773;28;20456;-73
2024/01/23 00:13:15;;;;;;;12.17;11.87;;;8.70;99.90;;;;;;5044314;28;20843;-73
2024/01/23 00:15:42;;;;;;;12.23;11.93;;;8.70;99.90;;;;;;5033280;28;20468;-71
2024/01/23 00:18:09;;;;;;;11.67;11.37;;;8.60;99.90;;;;;;5043337;28;20464;-71
2024/01/23 00:20:36;;;;;;;12.37;12.00;;;8.50;99.90;;;;;;5036649;28;20519;-71
2024/01/23 00:23:03;;;;;;;12.50;12.10;;;8.50;99.90;;;;;;5041559;28;20460;-72
2024/01/23 00:25:30;;;;;;;11.97;11.67;;;8.50;99.90;;;;;;5039427;28;20456;-71
2024/01/23 00:27:57;;;;;;;11.87;11.57;;;8.50;99.90;;;;;;5041501;28;21190;-72
2024/01/23 00:30:25;;;;;;;12.87;12.47;;;8.60;99.90;;;;;;5047527;28;20476;-72
2024/01/23 00:32:52;;;;;;;12.77;12.37;;;8.60;99.90;;;;;;5041051;28;20508;-71
2024/01/23 00:35:19;;;;;;;13.30;12.90;;;8.60;99.90;;;;;;5044322;28;20462;-73
2024/01/23 00:37:46;;;;;;;12.40;12.10;;;8.70;99.90;;;;;;5046839;28;20810;-72
2024/01/23 00:40:13;;;;;;;12.53;12.20;;;8.60;99.90;;;;;;5043445;28;20925;-71
2024/01/23 00:42:40;;;;;;;13.00;12.60;;;8.60;99.90;;;;;;5045499;28;20456;-72
2024/01/23 00:45:08;;;;;;;12.70;12.30;;;8.60;99.90;;;;;;5045201;28;20470;-71
2024/01/23 00:47:37;;;;;;;13.30;12.90;;;8.50;99.90;;;;;;5047506;28;20494;-70
2024/01/23 00:50:04;;;;;;;12.20;11.90;;;8.50;99.90;;;;;;5045712;28;20593;-70
2024/01/23 00:52:31;;;;;;;12.77;12.37;;;8.60;99.90;;;;;;5043370;28;20871;-72
2024/01/23 00:55:02;;;;;;;12.67;12.27;;;8.60;99.90;;;;;;5049003;28;21028;-71
2024/01/23 00:57:30;;;;;;;12.83;12.43;;;8.60;99.90;;;;;;5044846;28;20559;-70
2024/01/23 00:59:57;;;;;;;12.57;12.17;;;8.60;99.90;;;;;;5040552;28;20472;-72
2024/01/23 01:02:23;;;;;;;12.77;12.37;;;8.60;99.90;;;;;;5047796;28;20452;-72
2024/01/23 01:04:52;;;;;;;13.10;12.70;;;8.60;99.90;;;;;;5044522;28;20460;-72
2024/01/23 01:07:19;;;;;;;13.07;12.67;;;8.60;99.90;;;;;;5042775;28;20487;-72
2024/01/23 01:09:46;;;;;;;13.47;13.07;;;8.60;99.90;;;;;;5043985;28;20477;-72
2024/01/23 01:12:12;;;;;;;13.20;12.80;;;8.60;99.90;;;;;;5045164;28;20456;-70
2024/01/23 01:14:39;;;;;;;12.80;12.40;;;8.60;99.90;;;;;;5040798;28;20921;-70
2024/01/23 01:17:06;;;;;;;13.33;12.93;;;8.60;99.90;;;;;;5038512;28;20462;-71
2024/01/23 01:19:33;;;;;;;13.80;13.37;;;8.60;99.90;;;;;;5047990;28;20534;-70
2024/01/23 01:22:02;;;;;;;13.70;13.30;;;8.60;99.90;;;;;;5042877;28;20465;-71
2024/01/23 01:24:29;;;;;;;13.50;13.10;;;8.60;99.90;;;;;;5042159;28;20521;-72
2024/01/23 01:26:56;;;;;;;13.43;13.03;;;8.50;99.90;;;;;;5046193;28;20516;-71
2024/01/23 01:29:23;;;;;;;14.20;13.70;;;8.50;99.90;;;;;;5046079;28;20478;-71
2024/01/23 01:31:50;;;;;;;13.67;13.27;;;8.50;99.90;;;;;;5044339;28;20474;-68
2024/01/23 01:34:18;;;;;;;14.07;13.57;;;8.30;99.90;;;;;;5044499;28;20497;-69
2024/01/23 01:36:45;;;;;;;13.57;13.17;;;8.30;99.90;;;;;;5047409;28;20460;-69
2024/01/23 01:39:14;;;;;;;13.27;12.87;;;8.30;99.90;;;;;;5041764;28;20470;-70
2024/01/23 01:41:42;;;;;;;13.90;13.50;;;8.20;99.90;;;;;;5039373;28;20461;-71
2024/01/23 01:44:10;;;;;;;13.97;13.57;;;8.20;99.90;;;;;;5044215;28;20578;-69
2024/01/23 01:46:38;;;;;;;13.20;12.80;;;8.30;99.90;;;;;;5040737;28;20496;-71
2024/01/23 01:49:05;;;;;;;13.87;13.47;;;8.30;99.90;;;;;;5044809;28;20480;-72
2024/01/23 01:51:33;;;;;;;13.83;13.43;;;8.40;99.90;;;;;;5043378;28;20496;-71
2024/01/23 01:54:00;;;;;;;13.97;13.53;;;8.30;99.90;;;;;;5041343;28;20478;-69
2024/01/23 01:56:30;;;;;;;13.60;13.20;;;8.40;99.90;;;;;;5042833;28;20462;-70
2024/01/23 01:58:58;;;;;;;13.70;13.30;;;8.40;99.90;;;;;;5047405;28;20461;-71
2024/01/23 02:01:27;;;;;;;13.77;13.37;;;8.40;99.90;;;;;;5037517;28;20480;-71
2024/01/23 02:03:55;;;;;;;13.90;13.50;;;8.40;99.90;;;;;;5041924;28;20980;-69
2024/01/23 02:06:22;;;;;;;13.70;13.30;;;8.30;99.90;;;;;;5038100;28;20461;-71
2024/01/23 02:08:50;;;;;;;14.20;13.73;;;8.30;99.90;;;;;;5044185;28;20462;-69
2024/01/23 02:11:17;;;;;;;14.03;13.63;;;8.30;99.90;;;;;;5042367;28;20486;-70
2024/01/23 02:13:46;;;;;;;14.10;13.70;;;8.30;99.90;;;;;;5043204;28;20486;-71
2024/01/23 02:16:13;;;;;;;14.27;13.77;;;8.30;99.90;;;;;;5042346;28;20465;-70
2024/01/23 02:18:40;;;;;;;13.73;13.33;;;8.30;99.90;;;;;;5039503;28;20462;-69
2024/01/23 02:21:09;;;;;;;13.93;13.50;;;8.30;99.90;;;;;;5043557;28;20815;-69
2024/01/23 02:23:37;;;;;;;13.40;13.00;;;8.30;99.90;;;;;;5043842;28;20464;-70
2024/01/23 02:26:04;;;;;;;13.67;13.27;;;8.20;99.90;;;;;;5037344;28;20465;-69
2024/01/23 02:28:31;;;;;;;13.77;13.37;;;8.20;99.90;;;;;;5038421;28;20907;-70
2024/01/23 02:30:58;;;;;;;13.70;13.30;;;8.20;99.90;;;;;;5045257;28;20453;-69
2024/01/23 02:33:25;;;;;;;14.30;13.80;;;8.10;99.90;;;;;;5043102;28;20453;-70
2024/01/23 02:35:52;;;;;;;13.20;12.80;;;8.10;99.90;;;;;;5042962;28;20473;-70
2024/01/23 02:38:19;;;;;;;13.90;13.50;;;8.00;99.90;;;;;;5039024;28;20455;-70
2024/01/23 02:40:48;;;;;;;13.47;13.07;;;7.90;99.90;;;;;;5042404;28;20473;-69
2024/01/23 02:43:15;;;;;;;13.67;13.27;;;7.90;99.90;;;;;;5044750;28;20462;-70
2024/01/23 02:45:41;;;;;;;13.50;13.10;;;7.90;99.90;;;;;;5039617;28;20817;-70
2024/01/23 02:48:08;;;;;;;13.53;13.13;;;7.90;99.90;;;;;;5040930;28;20492;-69
2024/01/23 02:50:35;;;;;;;14.20;13.70;;;7.80;99.90;;;;;;5043253;28;20482;-70
2024/01/23 02:53:02;;;;;;;13.63;13.23;;;7.70;99.90;;;;;;5044713;28;21125;-69
2024/01/23 02:55:28;;;;;;;13.77;13.37;;;7.60;99.90;;;;;;5045064;28;20500;-70
2024/01/23 02:57:56;;;;;;;13.90;13.40;;;7.50;99.90;;;;;;5037793;28;20858;-70
2024/01/23 03:00:23;;;;;;;13.80;13.40;;;7.50;99.90;;;;;;5041650;28;20465;-69
2024/01/23 03:02:50;;;;;;;13.57;13.17;;;7.40;99.90;;;;;;5039066;28;20473;-70
2024/01/23 03:05:17;;;;;;;13.20;12.80;;;7.40;99.90;;;;;;5046310;28;20449;-69
2024/01/23 03:07:44;;;;;;;13.70;13.30;;;7.30;99.90;;;;;;5037969;28;20462;-70
2024/01/23 03:10:12;;;;;;;13.60;13.20;;;7.30;99.90;;;;;;5039257;28;20462;-70
2024/01/23 03:12:39;;;;;;;13.30;12.90;;;7.30;99.90;;;;;;5040301;28;20466;-70
2024/01/23 03:15:08;;;;;;;13.03;12.63;;;7.20;99.90;;;;;;5043954;28;21026;-70
2024/01/23 03:17:35;;;;;;;13.20;12.80;;;7.20;99.90;;;;;;5041289;28;20485;-70
2024/01/23 03:20:03;;;;;;;12.90;12.50;;;7.20;99.90;;;;;;5043619;28;20498;-68
2024/01/23 03:22:31;;;;;;;12.83;12.43;;;7.20;99.90;;;;;;5040738;28;20464;-70
2024/01/23 03:24:57;;;;;;;13.07;12.67;;;7.20;99.90;;;;;;5042686;28;20530;-70
2024/01/23 03:27:24;;;;;;;13.00;12.60;;;7.20;99.90;;;;;;5046202;28;20807;-68
2024/01/23 03:29:53;;;;;;;12.67;12.27;;;7.20;99.90;;;;;;5042141;28;20472;-69
2024/01/23 03:32:21;;;;;;;13.03;12.63;;;7.20;99.90;;;;;;5036643;28;20468;-69
2024/01/23 03:34:49;;;;;;;13.27;12.87;;;7.20;99.90;;;;;;5042378;28;21032;-70
2024/01/23 03:37:16;;;;;;;13.13;12.73;;;7.20;99.90;;;;;;5044556;28;20483;-70
2024/01/23 03:39:43;;;;;;;13.20;12.80;;;7.20;99.90;;;;;;5045553;28;20815;-70
2024/01/23 03:42:11;;;;;;;13.30;12.90;;;7.10;99.90;;;;;;5037827;28;20567;-70
2024/01/23 03:44:37;;;;;;;13.10;12.70;;;7.10;99.90;;;;;;5040770;28;20705;-69
2024/01/23 03:47:06;;;;;;;13.20;12.80;;;7.00;99.90;;;;;;5039691;28;20481;-70
2024/01/23 03:49:35;;;;;;;13.07;12.67;;;6.90;99.90;;;;;;5044963;28;20463;-69
2024/01/23 03:52:02;;;;;;;12.60;12.20;;;6.90;99.90;;;;;;5036751;28;20920;-69
2024/01/23 03:54:29;;;;;;;12.80;12.40;;;6.80;99.90;;;;;;5033654;28;20989;-70
2024/01/23 03:56:56;;;;;;;12.70;12.30;;;6.80;99.90;;;;;;5040037;28;20466;-70
2024/01/23 03:59:22;;;;;;;12.67;12.27;;;6.70;99.90;;;;;;5042224;28;20473;-69
2024/01/23 04:01:49;;;;;;;11.77;11.47;;;6.70;99.90;;;;;;5036292;28;20484;-70
2024/01/23 04:04:16;;;;;;;12.07;11.77;;;6.70;99.90;;;;;;5031351;28;20470;-70
2024/01/23 04:06:44;;;;;;;12.00;11.70;;;6.70;99.90;;;;;;5043532;28;20453;-70
2024/01/23 04:09:11;;;;;;;11.70;11.40;;;6.60;99.90;;;;;;5039330;28;20469;-69
2024/01/23 04:11:38;;;;;;;12.20;11.90;;;6.60;99.90;;;;;;5041814;28;20467;-69
2024/01/23 04:14:05;;;;;;;12.07;11.77;;;6.60;99.90;;;;;;5044147;28;20459;-70
2024/01/23 04:16:32;;;;;;;12.10;11.80;;;6.60;99.90;;;;;;5031616;28;20617;-69
2024/01/23 04:18:59;;;;;;;11.20;10.90;;;6.60;99.90;;;;;;5042899;28;20460;-70
2024/01/23 04:21:26;;;;;;;11.67;11.37;;;6.50;99.90;;;;;;5044120;28;20557;-69
2024/01/23 04:23:56;;;;;;;11.77;11.47;;;6.50;99.90;;;;;;5042505;28;20507;-69
2024/01/23 04:26:23;;;;;;;11.80;11.50;;;6.40;99.90;;;;;;5041006;28;20505;-69
2024/01/23 04:28:50;;;;;;;12.03;11.73;;;6.40;99.90;;;;;;5042336;28;20463;-70
2024/01/23 04:31:17;;;;;;;11.50;11.20;;;6.40;99.90;;;;;;5036991;28;21121;-70
2024/01/23 04:33:46;;;;;;;11.87;11.57;;;6.40;99.90;;;;;;5041500;28;20952;-70
2024/01/23 04:36:14;;;;;;;11.37;11.07;;;6.40;99.90;;;;;;5042074;28;20488;-70
2024/01/23 04:38:43;;;;;;;11.20;10.90;;;6.40;99.90;;;;;;5040721;28;20476;-70
2024/01/23 04:41:11;;;;;;;11.40;11.10;;;6.30;99.90;;;;;;5036717;28;20460;-70
2024/01/23 04:43:38;;;;;;;11.60;11.30;;;6.30;99.90;;;;;;5036309;28;20936;-70
2024/01/23 04:46:05;;;;;;;12.40;12.00;;;6.30;99.90;;;;;;5040664;28;20538;-68
2024/01/23 04:48:32;;;;;;;12.30;11.90;;;6.30;99.90;;;;;;5039820;28;20478;-70
2024/01/23 04:50:59;;;;;;;12.00;11.70;;;6.30;99.90;;;;;;5034999;28;20478;-69
2024/01/23 04:53:29;;;;;;;11.80;11.50;;;6.30;99.90;;;;;;5041101;28;20465;-69
2024/01/23 04:55:56;;;;;;;12.00;11.70;;;6.30;99.90;;;;;;5043846;28;20579;-70
2024/01/23 04:58:25;;;;;;;12.00;11.70;;;6.30;99.90;;;;;;5043254;28;20979;-68
2024/01/23 05:00:51;;;;;;;12.40;12.00;;;6.30;99.90;;;;;;5039754;28;20503;-69
2024/01/23 05:03:18;;;;;;;12.00;11.70;;;6.20;99.90;;;;;;5040972;28;20448;-71
2024/01/23 05:05:45;;;;;;;11.90;11.60;;;6.20;99.90;;;;;;5035261;28;20476;-70
2024/01/23 05:08:15;;;;;;;12.13;11.80;;;6.20;99.90;;;;;;5036672;28;20896;-69
2024/01/23 05:10:42;;;;;;;12.70;12.30;;;6.20;99.90;;;;;;5039721;28;20501;-70
2024/01/23 05:13:08;;;;;;;12.60;12.20;;;6.20;99.90;;;;;;5036486;28;20541;-70
2024/01/23 05:15:37;;;;;;;12.60;12.20;;;6.20;99.90;;;;;;5042396;28;20494;-70
2024/01/23 05:18:07;;;;;;;12.60;12.20;;;6.20;99.90;;;;;;5044586;28;20467;-70
2024/01/23 05:20:33;;;;;;;12.63;12.23;;;6.20;99.90;;;;;;5041711;28;20460;-70
2024/01/23 05:23:00;;;;;;;12.80;12.40;;;6.10;99.90;;;;;;5042263;28;20448;-70
2024/01/23 05:25:28;;;;;;;12.67;12.27;;;6.10;99.90;;;;;;5043490;28;20472;-69
2024/01/23 05:27:55;;;;;;;12.70;12.30;;;6.10;99.90;;;;;;5043689;28;20903;-70
2024/01/23 05:30:21;;;;;;;12.53;12.13;;;6.10;99.90;;;;;;5041519;28;20452;-69
2024/01/23 05:32:51;;;;;;;12.30;11.90;;;6.00;99.90;;;;;;5048043;28;20960;-69
2024/01/23 05:35:18;;;;;;;12.33;11.93;;;6.00;99.90;;;;;;5046014;28;20488;-69
2024/01/23 05:37:45;;;;;;;12.20;11.80;;;6.00;99.90;;;;;;5046472;28;20457;-69
2024/01/23 05:40:13;;;;;;;11.53;11.23;;;5.90;99.90;;;;;;5041900;28;20471;-70
2024/01/23 05:42:40;;;;;;;12.00;11.70;;;5.90;99.90;;;;;;5047114;28;20458;-70
2024/01/23 05:45:08;;;;;;;12.30;11.90;;;5.80;99.90;;;;;;5040834;28;20931;-70
2024/01/23 05:47:35;;;;;;;11.97;11.67;;;5.80;99.90;;;;;;5042611;28;20496;-69
2024/01/23 05:50:04;;;;;;;12.20;11.80;;;5.80;99.90;;;;;;5045347;28;20474;-70
2024/01/23 05:52:31;;;;;;;12.10;11.80;;;5.80;99.90;;;;;;5046764;28;21050;-70
2024/01/23 05:54:59;;;;;;;12.70;12.30;;;5.80;99.90;;;;;;5042654;28;20484;-70
2024/01/23 05:57:26;;;;;;;12.80;12.40;;;5.80;99.90;;;;;;5047537;28;20547;-70
2024/01/23 05:59:53;;;;;;;12.30;11.90;;;5.80;99.90;;;;;;5038740;28;20472;-69
2024/01/23 06:02:20;;;;;;;12.17;11.80;;;5.80;99.90;;;;;;5042804;28;20454;-69
2024/01/23 06:04:47;;;;;;;11.67;11.37;;;5.80;99.90;;;;;;5037615;28;20488;-70
2024/01/23 06:07:15;;;;;;;11.53;11.23;;;5.70;99.90;;;;;;5046294;28;21057;-70
2024/01/23 06:09:44;;;;;;;11.70;11.40;;;5.70;99.90;;;;;;5044023;28;20464;-71
2024/01/23 06:12:11;;;;;;;12.00;11.70;;;5.70;99.90;;;;;;5040925;28;20882;-70
2024/01/23 06:14:37;;;;;;;12.50;12.10;;;5.70;99.90;;;;;;5038584;28;20487;-70
2024/01/23 06:17:04;;;;;;;12.30;11.90;;;5.70;99.90;;;;;;5044617;28;20475;-71
2024/01/23 06:19:31;;;;;;;12.37;11.97;;;5.60;99.90;;;;;;5042745;28;20828;-70
2024/01/23 06:21:58;;;;;;;12.23;11.83;;;5.60;99.90;;;;;;5045553;28;21085;-70
2024/01/23 06:24:27;;;;;;;11.60;11.30;;;5.60;99.90;;;;;;5041178;28;20550;-70
2024/01/23 06:26:54;;;;;;;11.50;11.20;;;5.60;99.90;;;;;;5047105;28;20956;-71
2024/01/23 06:29:21;;;;;;;11.70;11.40;;;5.50;99.90;;;;;;5043315;28;20471;-70
2024/01/23 06:31:49;;;;;;;11.93;11.63;;;5.60;99.90;;;;;;5040228;28;20477;-70
2024/01/23 06:34:19;;;;;;;11.93;11.63;;;5.60;99.90;;;;;;5044456;28;20494;-71
2024/01/23 06:36:47;;;;;;;11.90;11.60;;;5.60;99.90;;;;;;5046151;28;20506;-71
2024/01/23 06:39:15;;;;;;;12.27;11.87;;;5.60;99.90;;;;;;5040321;28;20497;-71
2024/01/23 06:41:44;;;;;;;11.97;11.63;;;5.50;99.90;;;;;;5041402;28;20616;-71
2024/01/23 06:44:11;;;;;;;11.80;11.50;;;5.50;99.90;;;;;;5036917;28;20560;-72
2024/01/23 06:46:38;;;;;;;11.60;11.30;;;5.50;99.90;;;;;;5041537;28;20708;-72
2024/01/23 06:49:05;;;;;;;11.93;11.63;;;5.50;99.90;;;;;;5045131;28;20565;-71
2024/01/23 06:51:32;;;;;;;11.83;11.53;;;5.50;99.90;;;;;;5042644;28;20490;-70
2024/01/23 06:53:58;;;;;;;11.57;11.27;;;5.40;99.90;;;;;;5042905;28;20467;-71
2024/01/23 06:56:24;;;;;;;11.40;11.10;;;5.40;99.90;;;;;;5041599;28;20996;-71
2024/01/23 06:58:53;;;;;;;11.10;10.80;;;5.40;99.90;;;;;;5041126;28;20456;-69
2024/01/23 07:01:21;;;;;;;10.90;10.60;;;5.40;99.90;;;;;;5042614;28;20471;-70
2024/01/23 07:03:48;;;;;;;10.93;10.63;;;5.40;99.90;;;;;;5036188;28;20489;-69
2024/01/23 07:06:15;;;;;;;10.50;10.30;;;5.40;99.90;;;;;;5037791;28;20469;-70
2024/01/23 07:08:43;;;;;;;11.00;10.70;;;5.30;99.90;;;;;;5037115;28;20499;-69
2024/01/23 07:11:12;;;;;;;10.53;10.30;;;5.30;99.90;;;;;;5040064;28;20473;-70
2024/01/23 07:13:40;;;;;;;10.70;10.40;;;5.30;99.90;;;;;;5040820;28;20766;-70
2024/01/23 07:16:08;;;;;;;10.80;10.50;;;5.30;99.90;;;;;;5039077;28;20734;-69
2024/01/23 07:18:35;;;;;;;9.83;9.63;;;5.30;99.90;;;;;;5041877;28;20580;-69
2024/01/23 07:21:02;;;;;;;10.00;9.80;;;5.30;99.90;;;;;;5038986;28;20880;-70
2024/01/23 07:23:29;;;;;;;10.00;9.80;;;5.30;99.90;;;;;;5041169;28;20589;-71
2024/01/23 07:25:56;;;;;;;9.77;9.57;;;5.30;99.90;;;;;;5044490;28;20790;-70
2024/01/23 07:28:24;;;;;;;9.97;9.77;;;5.30;99.90;;;;;;5032701;28;20472;-71
2024/01/23 07:30:51;;;;;;;9.80;9.60;;;5.20;99.90;;;;;;5042412;28;20497;-70
2024/01/23 07:33:19;;;;;;;9.53;9.33;;;5.20;99.90;;;;;;5042731;28;20457;-71
2024/01/23 07:35:45;;;;;;;9.13;8.93;;;5.20;99.90;;;;;;5042091;28;20496;-70
2024/01/23 07:38:13;;;;;;;9.50;9.30;;;5.20;99.90;;;;;;5043480;28;20471;-71
2024/01/23 07:40:40;;;;;;;9.50;9.30;;;5.20;99.90;;;;;;5038916;28;20464;-70
2024/01/23 07:43:08;;;;;;;9.33;9.13;;;5.20;99.90;;;;;;5044430;28;21002;-71
2024/01/23 07:45:35;;;;;;;9.63;9.43;;;5.20;99.90;;;;;;5039720;28;20484;-70
2024/01/23 07:48:02;;;;;;;9.30;9.10;;;5.20;99.90;;;;;;5039606;28;20479;-70
2024/01/23 07:50:30;;;;;;;9.33;9.13;;;5.20;99.90;;;;;;5037622;28;20511;-71
2024/01/23 07:52:58;;;;;;;9.47;9.27;;;5.30;99.90;;;;;;5041014;28;20794;-70
2024/01/23 07:55:24;;;;;;;9.40;9.20;;;5.20;99.90;;;;;;5040781;28;20484;-69
2024/01/23 07:57:52;;;;;;;8.40;8.30;;;5.20;99.90;;;;;;5042005;28;20480;-69
2024/01/23 08:00:19;;;;;;;8.90;8.70;;;5.10;99.90;;;;;;5037780;28;20476;-71
2024/01/23 08:02:46;;;;;;;9.27;9.07;;;5.10;99.90;;;;;;5028067;28;21204;-70
2024/01/23 08:05:13;;;;;;;9.30;9.10;;;5.10;99.90;;;;;;5038162;28;20843;-71
2024/01/23 08:07:42;;;;;;;9.30;9.10;;;5.10;99.90;;;;;;5049921;28;20986;-71
2024/01/23 08:10:10;;;;;;;9.13;8.93;;;5.20;99.90;;;;;;5046664;28;20467;-70
2024/01/23 08:12:37;;;;;;;9.20;9.00;;;5.20;99.90;;;;;;5048341;28;20514;-71
2024/01/23 08:15:05;;;;;;;9.20;9.00;;;5.20;99.90;;;;;;5049995;28;20456;-71
2024/01/23 08:17:32;;;;;;;9.03;8.83;;;5.20;99.90;;;;;;5050048;28;20469;-71
2024/01/23 08:19:58;;;;;;;9.43;9.23;;;5.20;99.90;;;;;;5045587;28;20472;-68
2024/01/23 08:22:25;;;;;;;9.83;9.63;;;5.30;99.90;;;;;;5043755;28;20473;-69
2024/01/23 08:24:53;;;;;;;9.47;9.27;;;5.30;99.90;;;;;;5050625;28;20805;-70
2024/01/23 08:27:20;;;;;;;9.37;9.17;;;5.30;99.90;;;;;;5046397;28;20464;-69
2024/01/23 08:29:48;;;;;;;9.50;9.30;;;5.30;99.90;;;;;;5044891;28;20467;-70
2024/01/23 08:32:15;;;;;;;9.90;9.70;;;5.40;99.90;;;;;;5046258;28;21033;-70
2024/01/23 08:34:43;;;;;;;9.60;9.40;;;5.40;99.90;;;;;;5043862;28;20872;-70
2024/01/23 08:37:10;;;;;;;10.23;10.03;;;5.40;99.90;;;;;;5048729;28;21418;-70
2024/01/23 08:39:37;;;;;;;9.50;9.30;;;5.40;99.90;;;;;;5045929;28;20470;-70
2024/01/23 08:42:06;;;;;;;10.00;9.80;;;5.40;99.90;;;;;;5048805;28;20634;-70
2024/01/23 08:44:32;;;;;;;9.53;9.33;;;5.50;99.90;;;;;;5049365;28;20467;-70
2024/01/23 08:46:59;;;;;;;9.40;9.20;;;5.50;99.90;;;;;;5040792;28;21062;-71
2024/01/23 08:49:27;;;;;;;9.37;9.17;;;5.50;99.90;;;;;;5038188;28;20470;-70
2024/01/23 08:51:53;;;;;;;8.90;8.70;;;5.60;99.90;;;;;;5045240;28;20504;-70
2024/01/23 08:54:20;;;;;;;9.30;9.10;;;5.60;99.90;;;;;;5050549;28;20471;-70
2024/01/23 08:56:49;;;;;;;9.50;9.30;;;5.60;99.90;;;;;;5048461;28;20931;-69
2024/01/23 08:59:17;;;;;;;9.77;9.57;;;5.70;99.90;;;;;;5055009;28;20532;-70
2024/01/23 09:01:43;;;;;;;9.67;9.47;;;5.80;99.90;;;;;;5047666;28;20468;-70
2024/01/23 09:04:10;;;;;;;9.70;9.50;;;5.80;99.90;;;;;;5052353;28;20471;-70
2024/01/23 09:06:37;;;;;;;9.37;9.17;;;5.90;99.90;;;;;;5049482;28;20472;-70
2024/01/23 09:09:04;;;;;;;10.37;10.17;;;5.90;99.90;;;;;;5048945;28;20463;-69
2024/01/23 09:11:31;;;;;;;9.97;9.77;;;6.00;99.90;;;;;;5049650;28;20480;-69
2024/01/23 09:13:57;;;;;;;10.60;10.30;;;6.10;99.90;;;;;;5053158;28;20822;-70
2024/01/23 09:16:25;;;;;;;10.77;10.47;;;6.20;99.90;;;;;;5049674;28;20492;-70
2024/01/23 09:18:52;;;;;;;11.00;10.70;;;6.30;99.90;;;;;;5048145;28;20467;-69
2024/01/23 09:21:22;;;;;;;10.87;10.57;;;6.30;99.90;;;;;;5050552;28;20475;-69
2024/01/23 09:23:49;;;;;;;11.30;11.00;;;6.30;99.90;;;;;;5049276;28;20455;-69
2024/01/23 09:26:15;;;;;;;11.00;10.70;;;6.40;99.90;;;;;;5053050;28;20470;-70
2024/01/23 09:28:42;;;;;;;11.50;11.20;;;6.50;99.90;;;;;;5050522;28;20472;-70
2024/01/23 09:31:09;;;;;;;11.70;11.40;;;6.50;99.90;;;;;;5052500;28;20825;-70
2024/01/23 09:33:38;;;;;;;11.70;11.40;;;6.60;99.90;;;;;;5052494;28;20497;-69
2024/01/23 09:36:08;;;;;;;11.57;11.27;;;6.60;99.90;;;;;;5049565;28;20582;-69
2024/01/23 09:38:34;;;;;;;11.70;11.40;;;6.70;99.90;;;;;;5048708;28;20971;-70
2024/01/23 09:41:07;;;;;;;12.13;11.73;;;6.70;99.90;;;;;;5055218;28;20460;-71
2024/01/23 09:43:36;;;;;;;11.80;11.50;;;6.80;99.90;;;;;;5051096;28;20472;-71
2024/01/23 09:46:05;;;;;;;12.37;11.97;;;6.80;99.90;;;;;;5053893;28;20616;-69
2024/01/23 09:48:32;;;;;;;12.17;11.77;;;6.90;99.90;;;;;;5046494;28;20971;-71
2024/01/23 09:51:00;;;;;;;11.90;11.60;;;6.90;99.90;;;;;;5050298;28;20476;-70
2024/01/23 09:53:27;;;;;;;12.50;12.10;;;7.00;99.90;;;;;;5052521;28;20565;-68
2024/01/23 09:55:55;;;;;;;12.47;12.07;;;7.00;99.90;;;;;;5049609;28;20471;-69
2024/01/23 09:58:23;;;;;;;12.40;12.00;;;7.00;99.90;;;;;;5051877;28;20533;-70
2024/01/23 10:00:50;;;;;;;12.90;12.50;;;7.00;99.90;;;;;;5048264;28;20954;-69
2024/01/23 10:03:17;;;;;;;12.40;12.00;;;7.10;99.90;;;;;;5047340;28;20469;-69
2024/01/23 10:05:44;;;;;;;12.97;12.57;;;7.10;99.90;;;;;;5053893;28;20459;-70
2024/01/23 10:08:13;;;;;;;12.97;12.57;;;7.20;99.90;;;;;;5050944;28;20461;-69
2024/01/23 10:10:39;;;;;;;12.80;12.40;;;7.30;99.90;;;;;;5048542;28;20462;-69
2024/01/23 10:13:06;;;;;;;13.23;12.83;;;7.40;99.90;;;;;;5052017;28;20522;-69
2024/01/23 10:15:33;;;;;;;13.50;13.00;;;7.40;99.90;;;;;;5047498;28;20833;-69
2024/01/23 10:18:00;;;;;;;13.23;12.83;;;7.50;99.90;;;;;;5052437;28;20498;-69
2024/01/23 10:20:29;;;;;;;13.40;12.97;;;7.60;99.90;;;;;;5055399;28;20925;-69
2024/01/23 10:22:58;;;;;;;13.83;13.33;;;7.60;99.90;;;;;;5048999;28;20552;-68
2024/01/23 10:25:29;;;;;;;13.70;13.20;;;7.70;99.90;;;;;;5053887;28;20556;-69
2024/01/23 10:27:57;;;;;;;13.90;13.40;;;7.60;99.90;;;;;;5051951;28;20963;-70
2024/01/23 10:30:24;;;;;;;13.70;13.20;;;7.70;99.90;;;;;;5050122;28;20462;-69
2024/01/23 10:32:51;;;;;;;13.80;13.30;;;7.80;99.90;;;;;;5047251;28;21429;-70
2024/01/23 10:35:18;;;;;;;14.17;13.67;;;7.80;99.90;;;;;;5053565;28;20532;-69
2024/01/23 10:37:45;;;;;;;13.70;13.23;;;7.80;99.90;;;;;;5054100;28;20503;-68
2024/01/23 10:40:15;;;;;;;13.93;13.43;;;7.90;99.90;;;;;;5053236;28;20462;-70
2024/01/23 10:42:44;;;;;;;14.20;13.70;;;7.90;99.90;;;;;;5052637;28;20503;-69
2024/01/23 10:45:12;;;;;;;13.90;13.40;;;7.90;99.90;;;;;;5050889;28;20483;-70
2024/01/23 10:47:39;;;;;;;14.27;13.77;;;8.00;99.90;;;;;;5048338;28;20499;-70
2024/01/23 10:50:08;;;;;;;14.30;13.80;;;7.90;99.90;;;;;;5046626;28;20888;-70
2024/01/23 10:52:39;;;;;;;14.37;13.87;;;8.00;99.90;;;;;;5049985;28;20544;-70
2024/01/23 10:55:07;;;;;;;14.70;14.20;;;8.00;99.90;;;;;;5051218;28;20459;-70
2024/01/23 10:57:37;;;;;;;14.40;13.90;;;8.10;99.90;;;;;;5043427;28;20548;-70
2024/01/23 11:00:07;;;;;;;14.17;13.67;;;8.20;99.90;;;;;;5040977;28;20460;-70
2024/01/23 11:02:39;;;;;;;14.80;14.30;;;8.30;99.90;;;;;;5044265;28;20473;-69
2024/01/23 11:05:06;;;;;;;14.63;14.13;;;8.40;99.90;;;;;;5046166;28;20529;-70
2024/01/23 11:07:41;;;;;;;14.90;14.40;;;8.40;99.90;;;;;;5048395;28;20477;-69
2024/01/23 11:10:20;;;;;;;14.50;14.00;;;8.50;99.90;;;;;;5044797;28;20561;-69
2024/01/23 11:12:55;;;;;;;14.60;14.10;;;8.80;99.90;;;;;;5051594;28;20470;-69
2024/01/23 11:15:25;;;;;;;14.50;14.00;;;8.90;99.90;;;;;;5047418;28;20995;-71
2024/01/23 11:17:53;;;;;;;14.40;13.90;;;8.80;99.90;;;;;;5044663;28;20498;-68
2024/01/23 11:20:20;;;;;;;14.60;14.10;;;8.90;99.90;;;;;;5048128;28;20571;-68
2024/01/23 11:22:47;;;;;;;15.23;14.63;;;8.90;99.90;;;;;;5048519;28;20481;-70
2024/01/23 11:25:17;;;;;;;15.30;14.70;;;8.80;99.90;;;;;;5045899;28;20465;-69
2024/01/23 11:27:47;;;;;;;14.90;14.40;;;8.90;99.90;;;;;;5046432;28;20475;-71
2024/01/23 11:30:14;;;;;;;14.27;13.77;;;9.00;99.90;;;;;;5042810;28;20554;-70
2024/01/23 11:32:43;;;;;;;14.60;14.10;;;9.10;99.90;;;;;;5047584;28;20493;-69
2024/01/23 11:35:12;;;;;;;15.30;14.70;;;9.00;99.90;;;;;;5048108;28;20460;-70
2024/01/23 11:37:50;;;;;;;14.83;14.33;;;8.90;99.90;;;;;;5051251;28;20597;-70
2024/01/23 11:40:37;;;;;;;15.17;14.57;;;9.00;99.90;;;;;;5047181;28;20474;-69
2024/01/23 11:43:07;;;;;;;15.23;14.63;;;9.00;99.90;;;;;;5050665;28;20458;-70
2024/01/23 11:45:36;;;;;;;14.30;13.80;;;8.90;99.90;;;;;;5047792;28;20832;-69
2024/01/23 11:48:05;;;;;;;14.40;13.90;;;9.10;99.90;;;;;;5046847;28;20510;-70
2024/01/23 11:50:34;;;;;;;13.97;13.47;;;9.10;99.90;;;;;;5045821;28;20491;-69
2024/01/23 11:53:01;;;;;;;14.33;13.83;;;9.30;99.90;;;;;;5038359;28;20468;-71
2024/01/23 11:55:30;;;;;;;14.23;13.73;;;9.50;99.90;;;;;;5047960;28;20828;-69
2024/01/23 11:57:58;;;;;;;14.03;13.53;;;9.60;99.90;;;;;;5045766;28;20988;-70
2024/01/23 12:00:27;;;;;;;14.27;13.77;;;9.60;99.90;;;;;;5043827;28;20838;-71
2024/01/23 12:02:54;;;;;;;14.07;13.57;;;9.70;99.90;;;;;;5041333;28;20878;-70
2024/01/23 12:05:23;;;;;;;14.37;13.87;;;9.70;99.90;;;;;;5050009;28;20472;-71
2024/01/23 12:07:50;;;;;;;14.10;13.60;;;9.60;99.90;;;;;;5049483;28;20463;-69
2024/01/23 12:10:18;;;;;;;14.37;13.87;;;9.50;99.90;;;;;;5050470;28;20455;-69
2024/01/23 12:12:45;;;;;;;14.23;13.73;;;9.40;99.90;;;;;;5050161;28;20465;-70
2024/01/23 12:15:12;;;;;;;14.17;13.67;;;9.50;99.90;;;;;;5045101;28;21059;-71
2024/01/23 12:17:46;;;;;;;14.43;13.93;;;9.50;99.90;;;;;;5044265;28;20526;-71
2024/01/23 12:20:14;;;;;;;14.17;13.67;;;9.60;99.90;;;;;;5044568;28;20470;-70
2024/01/23 12:22:42;;;;;;;14.73;14.23;;;9.50;99.90;;;;;;5047864;28;20976;-70
2024/01/23 12:25:11;;;;;;;14.00;13.50;;;9.30;99.90;;;;;;5048282;28;21030;-71
2024/01/23 12:27:38;;;;;;;14.43;13.93;;;9.50;99.90;;;;;;5046948;28;20473;-70
2024/01/23 12:30:07;;;;;;;14.30;13.80;;;9.60;99.90;;;;;;5046336;28;20464;-71
2024/01/23 12:32:34;;;;;;;14.37;13.87;;;9.70;99.90;;;;;;5047543;28;20467;-70
2024/01/23 12:35:01;;;;;;;14.33;13.83;;;9.80;99.90;;;;;;5049751;28;20519;-70
2024/01/23 12:37:30;;;;;;;13.60;13.20;;;9.90;99.90;;;;;;5048915;28;20492;-71
2024/01/23 12:40:04;;;;;;;14.33;13.83;;;9.80;99.90;;;;;;5050211;28;20467;-69
2024/01/23 12:42:31;;;;;;;14.40;13.90;;;9.90;99.90;;;;;;5048728;28;20851;-71